Hovedside
METAR-TAF:

METAR-TAF

Lufthavner :

Vojens, Danmark

breddegrad: 55-14N, lengdegrad: 009-16E, høyde over havet: 43 m

Gjeldene værobservasjon

Denne rapporten ble laget for 8 minutter siden, klokken 21:20 UTC
Vind 4 kt fra Øst-nordøst
Temperatur -3°C
Luftfuktighet 68%
Trykk 1035 hPa
Sikt 10 km eller mer
ingen skyer under 1500 m og ingen bygeskyer

METAR: EKSP 242120Z 06004KT CAVOK M03/M08 Q1035

Tid: 22:28 (21:28 UTC)

Varsel

Denne rapporten ble laget for 1 time og 7 minutter siden, klokken 20:21 UTC
Varsel gyldig fra 24. klokken 21 UTC til 25. klokken 18 UTC
Vind 6 kt fra Øst-nordøst
Sikt 10 km eller mer
Spredte skyer i en høyde av 3000 ft
Spredte skyer i en høyde av 15000 ft
Midlertidig
fra 25. klokken 09 UTC til 25. klokken 18 UTC
Sikt: 3000 m
lette snøbyger
Blir
fra 25. klokken 10 UTC til 25. klokken 13 UTC
Vind 14 kt fra Nordøst

TAF: EKSP 242021Z 2421/2518 06006KT 9999 SCT030 SCT150 TEMPO 2509/2518 3000 -SHSN BECMG 2510/2513 05014KT

Værobservasjoner og værvarsel for over 4000 flyplasser (METAR- og TAF-rapporter).

Tilgjengelige stasjoner er representert av de røde og gule prikkene på kartet.

Hold musepekeren over prikken for å se navnet på stasjonen.

Klikk så for å se værobservasjoner og -varsler.

For å forandre kartet kan du klikke på den grønne knappen med svart kryss for å zoome inn, på den grønne knappen med strek for å zoome ut, eller på de grønne pilene for å se tilstøtende kart.


METAR-TAF: